^^
Datos históricos de la estación: Murcia-Puente Tocinos
Diario Informe para Octubre 4, 2019 Unidades:  Métrico    Ingés   Ambas
Diario Semanal Mensual Anual
  Máxima: Mínima: Promedio:
Temperatura: 30.4 °C 17.7 °C 23.6 °C
Punto de rocio: 15.2 °C 8.3 °C 10.8 °C
Humedad: 69% 26% 47%
Velocidad viento: 16.1km/h 0km/h 6.1km/h
Racha viento: 28.2km/h - -
Viento- - Sur
Presión: 1016.4 hPa 1012.4 hPa -
Precipitación: 0.0 mm    
 
 
Tabla de datos para Octubre 4, 2019
Hora Temperatura Punto de rocio Presión Viento Velocidad viento Racha viento Humedad Intensidad lluvia(por hora) Nubes
00:04 21.7 °C 15 °C 1015.5 hPa Oeste 3.9 km/h 8 km/h 65.8% 0.0 mm
00:09 21.6 °C 15 °C 1015.5 hPa Oeste 3.7 km/h 7.4 km/h 66% 0.0 mm
00:14 21.4 °C 15.1 °C 1015.5 hPa NO 2.9 km/h 8 km/h 67.4% 0.0 mm
00:19 21.3 °C 15.2 °C 1015.5 hPa NO 2.9 km/h 6.4 km/h 68.3% 0.0 mm
00:24 21.2 °C 15.2 °C 1015.4 hPa NO 2.9 km/h 4.8 km/h 69% 0.0 mm
00:29 21 °C 14.9 °C 1015.4 hPa SO 2.9 km/h 9.3 km/h 68.3% 0.0 mm
00:34 20.8 °C 14.5 °C 1015.5 hPa SE 2.9 km/h 9.7 km/h 67.5% 0.0 mm
00:39 20.7 °C 14.2 °C 1015.5 hPa SSE 3.1 km/h 9.5 km/h 66.5% 0.0 mm
00:44 20.8 °C 13.7 °C 1015.5 hPa Sur 5 km/h 11.9 km/h 64.1% 0.0 mm
00:49 21 °C 13.5 °C 1015.5 hPa SSO 5.4 km/h 13 km/h 62.2% 0.0 mm
00:54 21.1 °C 13.3 °C 1015.4 hPa SO 8.4 km/h 15.6 km/h 61.1% 0.0 mm
00:59 21.2 °C 13.4 °C 1015.4 hPa SO 8.6 km/h 16.1 km/h 61% 0.0 mm
01:04 21.2 °C 13.1 °C 1015.4 hPa SO 9.5 km/h 14.5 km/h 60% 0.0 mm
01:09 21.2 °C 13.1 °C 1015.4 hPa SO 9.2 km/h 14.5 km/h 60% 0.0 mm
01:14 21.2 °C 13 °C 1015.4 hPa SSO 7.6 km/h 11.3 km/h 59.6% 0.0 mm
01:19 21.2 °C 12.9 °C 1015.4 hPa SSO 7.4 km/h 10 km/h 59% 0.0 mm
01:24 21.2 °C 12.9 °C 1015.4 hPa Sur 6.5 km/h 9.7 km/h 59% 0.0 mm
01:29 21.1 °C 13.2 °C 1015.4 hPa SE 6.3 km/h 9.7 km/h 60.8% 0.0 mm
01:34 20.7 °C 13.3 °C 1015.4 hPa SSE 4.7 km/h 9.7 km/h 62.4% 0.0 mm
01:39 20.4 °C 13.1 °C 1015.3 hPa Sur 4.8 km/h 9.3 km/h 63% 0.0 mm
01:44 20.3 °C 13 °C 1015.2 hPa SSO 5.8 km/h 9.7 km/h 63% 0.0 mm
01:49 20.4 °C 13.1 °C 1015.2 hPa SSO 5.8 km/h 9.7 km/h 63% 0.0 mm
01:54 20.4 °C 13.1 °C 1015.1 hPa SSE 5.8 km/h 8.4 km/h 63% 0.0 mm
01:59 20.3 °C 13.1 °C 1015.1 hPa SE 5.6 km/h 9.3 km/h 63.3% 0.0 mm
02:04 20.1 °C 13 °C 1015.1 hPa SSE 5 km/h 10 km/h 64% 0.0 mm
02:09 19.8 °C 13 °C 1015.1 hPa SSE 5.3 km/h 13.7 km/h 65% 0.0 mm
02:14 19.7 °C 12.9 °C 1015.1 hPa Sur 7.5 km/h 17.2 km/h 65% 0.0 mm
02:19 19.7 °C 13 °C 1015.1 hPa SSO 7.9 km/h 17.7 km/h 65% 0.0 mm
02:24 19.8 °C 13 °C 1015.1 hPa SSO 10.3 km/h 14.5 km/h 64.8% 0.0 mm
02:29 19.9 °C 12.9 °C 1015.1 hPa Sur 9.9 km/h 12.9 km/h 64% 0.0 mm
02:34 19.9 °C 12.9 °C 1015.2 hPa Sur 6.5 km/h 9.7 km/h 64% 0.0 mm
02:39 20 °C 13 °C 1015.2 hPa Sur 6.2 km/h 8 km/h 64% 0.0 mm
02:44 19.9 °C 12.9 °C 1015.2 hPa SO 3.9 km/h 11.1 km/h 64% 0.0 mm
02:49 19.9 °C 12.9 °C 1015.2 hPa SO 4.3 km/h 14.8 km/h 64% 0.0 mm
02:54 19.9 °C 12.9 °C 1015.2 hPa SO 7.5 km/h 14.5 km/h 64% 0.0 mm
02:59 19.9 °C 12.8 °C 1015.2 hPa SSO 7.7 km/h 14.8 km/h 63.6% 0.0 mm
03:04 19.8 °C 12.6 °C 1015.2 hPa SO 8.4 km/h 14.5 km/h 63% 0.0 mm
03:09 19.8 °C 12.6 °C 1015.2 hPa OSO 8.1 km/h 10 km/h 63% 0.0 mm
03:14 19.7 °C 12.5 °C 1015.2 hPa SO 5.8 km/h 9.7 km/h 63% 0.0 mm
03:19 19.7 °C 12.4 °C 1015.2 hPa SO 5.7 km/h 9.7 km/h 63% 0.0 mm
03:24 19.7 °C 12.4 °C 1015.1 hPa Sur 5 km/h 8 km/h 63% 0.0 mm
03:29 19.6 °C 12.4 °C 1015.1 hPa Sur 4.8 km/h 9.3 km/h 63% 0.0 mm
03:34 19.6 °C 12.4 °C 1015.1 hPa SSO 3.9 km/h 13.7 km/h 63% 0.0 mm
03:39 19.7 °C 12.4 °C 1015.0 hPa SO 4.4 km/h 14.8 km/h 62.7% 0.0 mm
03:44 19.7 °C 12.3 °C 1014.9 hPa SO 8.7 km/h 14.5 km/h 62.3% 0.0 mm
03:49 19.7 °C 12.4 °C 1014.9 hPa SO 8.7 km/h 13.7 km/h 63% 0.0 mm
03:54 19.6 °C 12.4 °C 1014.9 hPa SO 8.4 km/h 14.5 km/h 63% 0.0 mm
03:59 19.4 °C 12.3 °C 1014.9 hPa SO 8.2 km/h 14.5 km/h 63.4% 0.0 mm
04:04 19.4 °C 12.4 °C 1014.9 hPa SO 7.6 km/h 11.3 km/h 64% 0.0 mm
04:09 19.3 °C 12.4 °C 1014.8 hPa SO 7.4 km/h 9.7 km/h 64% 0.0 mm
04:14 19.3 °C 12.3 °C 1014.8 hPa SSO 5.8 km/h 11.9 km/h 64% 0.0 mm
04:19 19.2 °C 12.3 °C 1014.8 hPa SSO 6 km/h 13 km/h 64% 0.0 mm
04:24 19.2 °C 12.2 °C 1014.8 hPa SSO 8.4 km/h 13.7 km/h 64% 0.0 mm
04:29 19.2 °C 12.1 °C 1014.8 hPa SSO 8.5 km/h 14.8 km/h 63.3% 0.0 mm
04:34 19.2 °C 12.2 °C 1014.8 hPa SSO 9.5 km/h 14.5 km/h 63.9% 0.0 mm
04:39 19.1 °C 12.1 °C 1014.8 hPa SSO 9.4 km/h 14.5 km/h 63.9% 0.0 mm
04:44 19 °C 11.9 °C 1014.8 hPa SSO 8.7 km/h 11.3 km/h 63.6% 0.0 mm
04:49 19 °C 11.8 °C 1014.8 hPa SSO 8.3 km/h 11.3 km/h 63% 0.0 mm
04:54 18.9 °C 11.6 °C 1014.7 hPa SSO 5.8 km/h 11.9 km/h 62.6% 0.0 mm
04:59 18.9 °C 11.5 °C 1014.7 hPa SSO 6.1 km/h 11.3 km/h 62.2% 0.0 mm
05:04 18.9 °C 11.5 °C 1014.8 hPa SSO 7.6 km/h 11.1 km/h 62.1% 0.0 mm
05:09 18.8 °C 11.4 °C 1014.8 hPa SSO 7.4 km/h 11.3 km/h 62.2% 0.0 mm
05:14 18.8 °C 11.4 °C 1014.8 hPa SO 6.5 km/h 11.1 km/h 62% 0.0 mm
05:19 18.8 °C 11.4 °C 1014.9 hPa OSO 6.5 km/h 11.3 km/h 61.8% 0.0 mm
05:24 18.8 °C 11.4 °C 1014.9 hPa OSO 6.5 km/h 9.3 km/h 62% 0.0 mm
05:29 18.7 °C 11.3 °C 1014.9 hPa OSO 6.3 km/h 9.7 km/h 62% 0.0 mm
05:34 18.7 °C 11.1 °C 1014.9 hPa SO 5 km/h 10 km/h 61.7% 0.0 mm
05:39 18.7 °C 11 °C 1014.8 hPa OSO 5.2 km/h 9.7 km/h 61% 0.0 mm
05:44 18.7 °C 10.9 °C 1014.8 hPa SSO 6.4 km/h 10.3 km/h 60.7% 0.0 mm
05:49 18.8 °C 10.8 °C 1014.9 hPa SSO 6.5 km/h 14.8 km/h 59.8% 0.0 mm
05:54 18.9 °C 10.8 °C 1014.9 hPa SSO 6.9 km/h 14.5 km/h 59.4% 0.0 mm
05:59 18.9 °C 10.8 °C 1014.9 hPa SSO 6.9 km/h 11.3 km/h 59.3% 0.0 mm
06:04 18.8 °C 10.9 °C 1014.9 hPa SSO 6.5 km/h 11.3 km/h 60% 0.0 mm
06:09 18.7 °C 10.8 °C 1014.9 hPa SO 6.5 km/h 11.3 km/h 60% 0.0 mm
06:14 18.7 °C 10.8 °C 1014.9 hPa SO 6.5 km/h 11.3 km/h 60% 0.0 mm
06:19 18.7 °C 10.6 °C 1014.9 hPa OSO 6.5 km/h 9.7 km/h 59.5% 0.0 mm
06:24 18.6 °C 10.4 °C 1014.9 hPa SO 6.5 km/h 10.3 km/h 58.7% 0.0 mm
06:29 18.6 °C 10.2 °C 1014.9 hPa SO 6.5 km/h 11.3 km/h 58% 0.0 mm
06:34 18.6 °C 10.2 °C 1015.0 hPa SSO 6.5 km/h 9.7 km/h 58% 0.0 mm
06:39 18.7 °C 10.4 °C 1015.0 hPa SSE 6 km/h 5.6 km/h 58.4% 0.0 mm
06:44 18.7 °C 10.5 °C 1015.0 hPa SSE 2.9 km/h 4.8 km/h 59.3% 0.0 mm
06:49 18.6 °C 10.7 °C 1015.1 hPa SSE 2.5 km/h 3.7 km/h 60.1% 0.0 mm
06:54 18.4 °C 10.6 °C 1015.1 hPa Calm   5.8 km/h 60.3% 0.0 mm
06:59 18.3 °C 10.6 °C 1015.1 hPa NNO 0.5 km/h 6.4 km/h 61% 0.0 mm
07:04 18.1 °C 10.4 °C 1015.2 hPa NNO 2.9 km/h 6.4 km/h 60.8% 0.0 mm
07:09 17.9 °C 10.3 °C 1015.2 hPa NNO 2.9 km/h 5.6 km/h 61% 0.0 mm
07:14 17.9 °C 10.2 °C 1015.2 hPa NNO 2.9 km/h 5.6 km/h 60.9% 0.0 mm
07:19 17.9 °C 10.3 °C 1015.2 hPa NNO 2.5 km/h 3.9 km/h 61% 0.0 mm
07:24 17.9 °C 10.3 °C 1015.2 hPa Calm   5.8 km/h 61% 0.0 mm
07:29 17.9 °C 10.1 °C 1015.2 hPa Sur 0.4 km/h 7.4 km/h 60.4% 0.0 mm
07:34 18 °C 10.1 °C 1015.3 hPa SSO 3.2 km/h 8.4 km/h 60% 0.0 mm
07:39 18.1 °C 10.2 °C 1015.3 hPa SO 3.4 km/h 8 km/h 60% 0.0 mm
07:44 18.1 °C 10.4 °C 1015.3 hPa ONO 4.7 km/h 8 km/h 60.6% 0.0 mm
07:49 18.1 °C 10.3 °C 1015.4 hPa NO 4.5 km/h 8 km/h 60.5% 0.0 mm
07:54 18 °C 10.4 °C 1015.4 hPa NO 2.9 km/h 4.8 km/h 61% 0.0 mm
07:59 17.9 °C 10.4 °C 1015.4 hPa NO 2.9 km/h 4.7 km/h 61.6% 0.0 mm
08:04 17.9 °C 10.7 °C 1015.6 hPa NO 2.9 km/h 4.8 km/h 62.8% 0.0 mm
08:09 17.8 °C 10.7 °C 1015.6 hPa Oeste 2.9 km/h 6.9 km/h 63% 0.0 mm
08:14 17.7 °C 10.2 °C 1015.6 hPa OSO 2.9 km/h 8.4 km/h 61.6% 0.0 mm
08:19 17.8 °C 10.1 °C 1015.6 hPa SO 3.2 km/h 9.5 km/h 60.8% 0.0 mm
08:24 17.9 °C 10 °C 1015.5 hPa SO 5 km/h 10 km/h 60.1% 0.0 mm
08:29 18.1 °C 10 °C 1015.5 hPa SO 5.2 km/h 10 km/h 59% 0.0 mm
08:34 18.3 °C 9.7 °C 1015.6 hPa SO 6.4 km/h 10 km/h 57.6% 0.0 mm
08:39 18.5 °C 9.6 °C 1015.6 hPa SO 6.5 km/h 11.1 km/h 56.3% 0.0 mm
08:44 18.7 °C 9.5 °C 1015.6 hPa SO 6.9 km/h 11.3 km/h 55.2% 0.0 mm
08:49 19 °C 9.5 °C 1015.9 hPa OSO 6.9 km/h 9.7 km/h 54.2% 0.0 mm
08:54 19.2 °C 9.6 °C 1015.9 hPa SO 6.9 km/h 9.7 km/h 54% 0.0 mm
08:59 19.3 °C 9.7 °C 1015.9 hPa SSO 6.7 km/h 9.5 km/h 54% 0.0 mm
09:04 19.4 °C 9.7 °C 1015.9 hPa SSO 5.8 km/h 9.7 km/h 53.7% 0.0 mm
09:09 19.5 °C 9.8 °C 1015.9 hPa SSE 5.7 km/h 8 km/h 53.3% 0.0 mm
09:14 19.7 °C 10.1 °C 1015.9 hPa Sur 5 km/h 8.4 km/h 53.9% 0.0 mm
09:19 19.8 °C 10.2 °C 1016.1 hPa SO 4.9 km/h 8 km/h 53.9% 0.0 mm
09:24 19.9 °C 10.2 °C 1016.1 hPa SO 4.7 km/h 9.5 km/h 53.3% 0.0 mm
09:29 20.1 °C 10.2 °C 1016.1 hPa SO 4.7 km/h 10 km/h 53% 0.0 mm
09:34 20.2 °C 9.9 °C 1016.1 hPa OSO 4.7 km/h 11.1 km/h 51.4% 0.0 mm
09:39 20.3 °C 9.6 °C 1016.1 hPa OSO 4.9 km/h 11.9 km/h 50.1% 0.0 mm
09:44 20.4 °C 9.3 °C 1016.1 hPa OSO 6.9 km/h 11.3 km/h 49.1% 0.0 mm
09:49 20.5 °C 9.3 °C 1016.2 hPa OSO 6.8 km/h 11.3 km/h 48.7% 0.0 mm
09:54 20.6 °C 9.2 °C 1016.2 hPa OSO 5.8 km/h 9.7 km/h 48% 0.0 mm
09:59 20.7 °C 9.4 °C 1016.2 hPa SO 5.5 km/h 8 km/h 48.3% 0.0 mm
10:04 20.9 °C 9.5 °C 1016.3 hPa OSO 3.9 km/h 9.3 km/h 47.9% 0.0 mm
10:09 21.1 °C 9.3 °C 1016.3 hPa OSO 3.9 km/h 9.7 km/h 47% 0.0 mm
10:14 21.2 °C 9.4 °C 1016.3 hPa OSO 4.7 km/h 8 km/h 47% 0.0 mm
10:19 21.3 °C 9.5 °C 1016.4 hPa SO 4.7 km/h 8 km/h 46.9% 0.0 mm
10:24 21.5 °C 9.5 °C 1016.4 hPa SO 4.7 km/h 9.5 km/h 46.4% 0.0 mm
10:29 21.7 °C 9.5 °C 1016.4 hPa OSO 4.8 km/h 10 km/h 45.9% 0.0 mm
10:34 21.8 °C 9.4 °C 1016.4 hPa OSO 5.8 km/h 9.7 km/h 45.3% 0.0 mm
10:39 21.9 °C 9.8 °C 1016.4 hPa SO 5.8 km/h 10 km/h 46% 0.0 mm
10:44 22.2 °C 9.7 °C 1016.4 hPa SO 5.8 km/h 11.1 km/h 45.1% 0.0 mm
10:49 22.4 °C 9.8 °C 1016.4 hPa Sur 5.9 km/h 11.3 km/h 44.7% 0.0 mm
10:54 22.6 °C 9.7 °C 1016.4 hPa SSO 6.4 km/h 11.3 km/h 44.1% 0.0 mm
10:59 22.7 °C 9.8 °C 1016.4 hPa OSO 6.2 km/h 8 km/h 43.8% 0.0 mm
11:04 23 °C 9.9 °C 1016.4 hPa Sur 5 km/h 9.5 km/h 43.7% 0.0 mm
11:09 23.2 °C 9.9 °C 1016.3 hPa SSE 5.2 km/h 11.9 km/h 43% 0.0 mm
11:14 23.3 °C 9.9 °C 1016.3 hPa Sur 6.9 km/h 11.9 km/h 42.4% 0.0 mm
11:19 23.4 °C 9.7 °C 1016.3 hPa SSO 6.9 km/h 11.3 km/h 41.8% 0.0 mm
11:24 23.6 °C 9.9 °C 1016.3 hPa Sur 6.5 km/h 10 km/h 41.8% 0.0 mm
11:29 23.9 °C 10 °C 1016.3 hPa SSO 6.4 km/h 9.7 km/h 41.4% 0.0 mm
11:34 24.1 °C 9.9 °C 1016.3 hPa Sur 5.8 km/h 9.7 km/h 40.7% 0.0 mm
11:39 24.3 °C 10 °C 1016.3 hPa SSO 5.6 km/h 9.7 km/h 40.4% 0.0 mm
11:44 24.6 °C 10.1 °C 1016.3 hPa SO 3.9 km/h 8 km/h 40% 0.0 mm
11:49 25 °C 10.3 °C 1016.3 hPa Sur 3.8 km/h 8 km/h 39.7% 0.0 mm
11:54 25.2 °C 10.1 °C 1016.2 hPa SSO 3.2 km/h 11.1 km/h 38.5% 0.0 mm
11:59 25.2 °C 9.9 °C 1016.2 hPa SO 3.5 km/h 11.3 km/h 38% 0.0 mm
12:04 25.2 °C 10.2 °C 1016.2 hPa SO 5 km/h 9.7 km/h 38.9% 0.0 mm
12:09 25.3 °C 10 °C 1016.2 hPa SSE 4.9 km/h 8 km/h 38.2% 0.0 mm
12:14 25.6 °C 10.2 °C 1016.2 hPa ENE 4.7 km/h 8 km/h 38% 0.0 mm
12:19 25.8 °C 10.2 °C 1016.2 hPa Este 4.6 km/h 8 km/h 37.5% 0.0 mm
12:24 26.2 °C 10.3 °C 1016.1 hPa Sur 3.9 km/h 8 km/h 37% 0.0 mm
12:29 26.3 °C 10.1 °C 1016.1 hPa SO 3.8 km/h 7.4 km/h 36.1% 0.0 mm
12:34 26.5 °C 10.5 °C 1016.1 hPa NNO 3.2 km/h 8 km/h 36.7% 0.0 mm
12:39 26.7 °C 10.4 °C 1016.0 hPa NNE 3.3 km/h 9.3 km/h 36% 0.0 mm
12:44 26.8 °C 10.5 °C 1016.0 hPa NE 3.9 km/h 9.7 km/h 36% 0.0 mm
12:49 26.9 °C 10.5 °C 1016.0 hPa NNO 3.8 km/h 8 km/h 35.9% 0.0 mm
12:54 27.1 °C 10.7 °C 1015.9 hPa NNE 3.2 km/h 9.3 km/h 36% 0.0 mm
12:59 27.2 °C 10.7 °C 1015.9 hPa NNO 3.3 km/h 9.7 km/h 35.6% 0.0 mm
13:04 27.3 °C 10.6 °C 1015.9 hPa NNE 3.9 km/h 9.5 km/h 35.3% 0.0 mm
13:09 27.3 °C 10.6 °C 1015.8 hPa NO 4 km/h 9.7 km/h 35.2% 0.0 mm
13:14 27.3 °C 10.7 °C 1015.8 hPa NE 5 km/h 11.1 km/h 35.7% 0.0 mm
13:19 27.2 °C 10.7 °C 1015.8 hPa NNE 5.2 km/h 11.3 km/h 35.8% 0.0 mm
13:24 27.2 °C 10.6 °C 1015.8 hPa NNO 6.4 km/h 9.7 km/h 35.4% 0.0 mm
13:29 27.4 °C 10.6 °C 1015.7 hPa NE 6.1 km/h 9.3 km/h 35% 0.0 mm
13:34 27.6 °C 10.5 °C 1015.7 hPa NE 3.9 km/h 13 km/h 34.3% 0.0 mm
13:39 27.6 °C 10.3 °C 1015.5 hPa NE 3.9 km/h 12.9 km/h 34% 0.0 mm
13:44 27.8 °C 10.3 °C 1015.4 hPa NNO 4.7 km/h 8 km/h 33.5% 0.0 mm
13:49 28 °C 10.4 °C 1015.4 hPa NNE 4.6 km/h 8.7 km/h 33.3% 0.0 mm
13:54 28.2 °C 10.3 °C 1015.3 hPa NE 3.9 km/h 10 km/h 32.8% 0.0 mm
13:59 28.1 °C 10.2 °C 1015.3 hPa ENE 4.2 km/h 11.1 km/h 32.7% 0.0 mm
14:04 28.1 °C 9.9 °C 1015.3 hPa ENE 5.8 km/h 11.3 km/h 32% 0.0 mm
14:09 28.3 °C 10 °C 1015.2 hPa ENE 5.4 km/h 8.4 km/h 32% 0.0 mm
14:14 28.5 °C 9.9 °C 1015.1 hPa Este 2.9 km/h 11.1 km/h 31.4% 0.0 mm
14:19 28.5 °C 9.8 °C 1015.1 hPa SE 3.3 km/h 14.8 km/h 31.2% 0.0 mm
14:24 28.4 °C 10 °C 1014.9 hPa ESE 6.4 km/h 14.5 km/h 31.7% 0.0 mm
14:29 28.7 °C 10.2 °C 1014.8 hPa ENE 6.2 km/h 9.5 km/h 31.8% 0.0 mm
14:34 28.7 °C 9.8 °C 1014.8 hPa NE 4.7 km/h 13.7 km/h 30.8% 0.0 mm
14:39 28.7 °C 9.4 °C 1014.5 hPa NNE 5 km/h 14.5 km/h 30% 0.0 mm
14:44 28.7 °C 9.3 °C 1014.4 hPa NNE 7.5 km/h 12.9 km/h 29.7% 0.0 mm
14:49 29 °C 9.1 °C 1014.4 hPa NE 7.3 km/h 10 km/h 28.9% 0.0 mm
14:54 29.2 °C 8.6 °C 1014.3 hPa NNE 5.8 km/h 10.3 km/h 27.7% 0.0 mm
14:59 29.3 °C 8.7 °C 1014.2 hPa North 5.8 km/h 11.3 km/h 27.5% 0.0 mm
15:04 29.5 °C 8.5 °C 1014.2 hPa NE 5.8 km/h 13 km/h 27% 0.0 mm
15:09 29.6 °C 8.6 °C 1014.0 hPa NNE 5.9 km/h 12.9 km/h 27% 0.0 mm
15:14 29.7 °C 8.7 °C 1014.0 hPa North 6.4 km/h 11.3 km/h 27% 0.0 mm
15:19 29.8 °C 8.6 °C 1014.0 hPa ENE 6.4 km/h 11.3 km/h 26.8% 0.0 mm
15:24 29.8 °C 8.3 °C 1013.9 hPa North 5.8 km/h 11.3 km/h 26.1% 0.0 mm
15:29 30 °C 8.7 °C 1013.9 hPa NNE 5.6 km/h 11.1 km/h 26.6% 0.0 mm
15:34 30.1 °C 8.5 °C 1013.9 hPa SSE 3.9 km/h 11.3 km/h 26.1% 0.0 mm
15:39 30.1 °C 8.7 °C 1013.7 hPa OSO 4 km/h 9.7 km/h 26.5% 0.0 mm
15:44 30.3 °C 8.9 °C 1013.6 hPa NE 5 km/h 7.6 km/h 26.5% 0.0 mm
15:49 30.4 °C 8.7 °C 1013.6 hPa NE 4.9 km/h 8 km/h 26% 0.0 mm
15:54 30.4 °C 9.1 °C 1013.4 hPa Este 4.7 km/h 18.5 km/h 26.7% 0.0 mm
15:59 30.3 °C 9.3 °C 1013.4 hPa SE 5.1 km/h 19.3 km/h 27% 0.0 mm
16:04 30.3 °C 10.1 °C 1013.4 hPa ESE 7.5 km/h 14.8 km/h 28.6% 0.0 mm
16:09 30.3 °C 10.3 °C 1013.2 hPa SE 7.9 km/h 19 km/h 29% 0.0 mm
16:14 30.2 °C 10.6 °C 1013.2 hPa SE 10 km/h 24.1 km/h 29.8% 0.0 mm
16:19 30.1 °C 11.1 °C 1013.2 hPa SE 10.6 km/h 27.8 km/h 31% 0.0 mm
16:24 29.8 °C 10.9 °C 1013.1 hPa ESE 14.8 km/h 27.4 km/h 31% 0.0 mm
16:29 29.8 °C 11.1 °C 1013.0 hPa SE 14.9 km/h 25.7 km/h 31.6% 0.0 mm
16:34 29.7 °C 11.2 °C 1013.0 hPa SE 15.6 km/h 24.1 km/h 32% 0.0 mm
16:39 29.7 °C 11.3 °C 1012.9 hPa SE 15.6 km/h 25.9 km/h 32.1% 0.0 mm
16:44 29.7 °C 11.6 °C 1012.9 hPa ESE 15.6 km/h 27.8 km/h 32.9% 0.0 mm
16:49 29.5 °C 11.6 °C 1012.9 hPa ESE 15.7 km/h 27.4 km/h 33.1% 0.0 mm
16:54 29.5 °C 12 °C 1012.8 hPa ESE 16.1 km/h 24.1 km/h 33.9% 0.0 mm
16:59 29.6 °C 12.5 °C 1012.7 hPa ESE 15.7 km/h 22.5 km/h 34.9% 0.0 mm
17:04 29.7 °C 12.7 °C 1012.7 hPa SE 14 km/h 24.5 km/h 35.3% 0.0 mm
17:09 29.6 °C 13.4 °C 1012.7 hPa ESE 14.2 km/h 24.1 km/h 37% 0.0 mm
17:14 29.4 °C 13.1 °C 1012.7 hPa ESE 15.6 km/h 24.5 km/h 36.7% 0.0 mm
17:19 29.4 °C 12.7 °C 1012.8 hPa SE 15.4 km/h 24.1 km/h 35.8% 0.0 mm
17:24 29.5 °C 12.3 °C 1012.8 hPa ESE 14 km/h 28.2 km/h 34.8% 0.0 mm
17:29 29.4 °C 12 °C 1012.8 hPa ESE 13.9 km/h 27.8 km/h 34.2% 0.0 mm
17:34 29.5 °C 11.8 °C 1012.8 hPa SE 13 km/h 24.1 km/h 33.7% 0.0 mm
17:39 29.5 °C 11.3 °C 1012.7 hPa SE 13 km/h 24.1 km/h 32.6% 0.0 mm
17:44 29.4 °C 11.3 °C 1012.7 hPa SE 13 km/h 24.1 km/h 32.6% 0.0 mm
17:49 29.4 °C 11.4 °C 1012.7 hPa ESE 12.8 km/h 24.1 km/h 32.9% 0.0 mm
17:54 29.4 °C 11.3 °C 1012.6 hPa ESE 11.1 km/h 22.2 km/h 32.7% 0.0 mm
17:59 29.4 °C 11 °C 1012.6 hPa SE 11.1 km/h 22.5 km/h 32% 0.0 mm
18:04 29.3 °C 10.9 °C 1012.6 hPa SE 11.1 km/h 22.2 km/h 32% 0.0 mm
18:09 29.3 °C 10.9 °C 1012.5 hPa SE 11.2 km/h 22.5 km/h 32% 0.0 mm
18:14 29.3 °C 10.9 °C 1012.5 hPa ESE 11.9 km/h 19.3 km/h 32% 0.0 mm
18:19 29.2 °C 10.3 °C 1012.6 hPa SE 11.7 km/h 22.2 km/h 30.9% 0.0 mm
18:24 29.2 °C 10 °C 1012.6 hPa SE 10.3 km/h 22.5 km/h 30.3% 0.0 mm
18:29 29.2 °C 10.3 °C 1012.6 hPa SE 10.5 km/h 20.9 km/h 31% 0.0 mm
18:34 29.1 °C 10.2 °C 1012.6 hPa SSE 12.2 km/h 20.9 km/h 31% 0.0 mm
18:39 29.1 °C 10.2 °C 1012.5 hPa SSE 11.9 km/h 17.2 km/h 31% 0.0 mm
18:44 29.1 °C 10.1 °C 1012.4 hPa SSE 9.5 km/h 20.4 km/h 30.8% 0.0 mm
18:49 28.9 °C 10.1 °C 1012.5 hPa SE 9.6 km/h 20.9 km/h 31% 0.0 mm
18:54 28.8 °C 10.2 °C 1012.5 hPa SE 10.3 km/h 20.9 km/h 31.5% 0.0 mm
18:59 28.7 °C 10.4 °C 1012.5 hPa ESE 9.7 km/h 16.1 km/h 32% 0.0 mm
19:04 28.7 °C 10.3 °C 1012.5 hPa SSE 6.9 km/h 14.5 km/h 31.8% 0.0 mm
19:09 28.6 °C 10.3 °C 1012.5 hPa SE 6.8 km/h 12.9 km/h 32% 0.0 mm
19:14 28.6 °C 10.3 °C 1012.5 hPa SSE 5.8 km/h 10.3 km/h 32% 0.0 mm
19:19 28.4 °C 10.1 °C 1012.5 hPa SSE 5.9 km/h 11.9 km/h 32% 0.0 mm
19:24 28.3 °C 10 °C 1012.5 hPa SSE 6.9 km/h 11.3 km/h 32% 0.0 mm
19:29 28.2 °C 9.8 °C 1012.5 hPa SSE 7 km/h 15.6 km/h 31.8% 0.0 mm
19:34 27.9 °C 9.7 °C 1012.5 hPa SSE 7.6 km/h 16.4 km/h 32% 0.0 mm
19:39 27.7 °C 9.4 °C 1012.5 hPa SSE 7.8 km/h 17.2 km/h 31.8% 0.0 mm
19:44 27.5 °C 8.9 °C 1012.5 hPa Sur 9.5 km/h 17.7 km/h 31% 0.0 mm
19:49 27.4 °C 8.8 °C 1012.6 hPa SSE 9.6 km/h 16.1 km/h 31% 0.0 mm
19:54 27.3 °C 8.7 °C 1012.6 hPa SSE 10 km/h 14.5 km/h 31% 0.0 mm
19:59 27.3 °C 8.6 °C 1012.6 hPa SSE 9.5 km/h 12.9 km/h 31% 0.0 mm
20:04 27.2 °C 8.6 °C 1012.7 hPa SE 6.9 km/h 12.2 km/h 31% 0.0 mm
20:09 27.1 °C 8.5 °C 1012.7 hPa SE 6.9 km/h 13 km/h 31% 0.0 mm
20:14 27 °C 8.6 °C 1012.7 hPa ESE 6.9 km/h 12.9 km/h 31.4% 0.0 mm
20:19 26.8 °C 9.3 °C 1012.7 hPa Este 6.6 km/h 9.3 km/h 33.2% 0.0 mm
20:24 26.6 °C 9.4 °C 1012.7 hPa Este 4.7 km/h 9.7 km/h 33.9% 0.0 mm
20:29 26.4 °C 9.6 °C 1012.7 hPa ENE 4.7 km/h 9.7 km/h 34.7% 0.0 mm
20:34 26.3 °C 9.8 °C 1012.8 hPa Este 4.7 km/h 6.4 km/h 35.5% 0.0 mm
20:39 26.2 °C 10.1 °C 1012.8 hPa ENE 4.4 km/h 5.8 km/h 36.5% 0.0 mm
20:44 26 °C 10.2 °C 1012.8 hPa NE 2.9 km/h 6.4 km/h 37% 0.0 mm
20:49 25.8 °C 10.2 °C 1012.9 hPa NE 2.8 km/h 3.7 km/h 37.5% 0.0 mm
20:54 25.7 °C 9.9 °C 1012.9 hPa Este 2.2 km/h 5.8 km/h 37.1% 0.0 mm
20:59 25.6 °C 9.8 °C 1012.9 hPa Este 2.5 km/h 6.4 km/h 37% 0.0 mm
21:04 25.6 °C 9.8 °C 1013.0 hPa Este 3.9 km/h 8 km/h 37% 0.0 mm
21:09 25.5 °C 9.7 °C 1013.0 hPa ENE 3.9 km/h 8 km/h 37% 0.0 mm
21:14 25.3 °C 9.6 °C 1013.0 hPa ESE 3.9 km/h 6.4 km/h 37% 0.0 mm
21:19 25.3 °C 9.6 °C 1013.0 hPa ESE 3.8 km/h 6.4 km/h 37% 0.0 mm
21:24 25.2 °C 9.5 °C 1013.0 hPa ESE 3.2 km/h 5.8 km/h 37.2% 0.0 mm
21:29 25.2 °C 9.7 °C 1013.0 hPa ESE 3.2 km/h 6.4 km/h 37.6% 0.0 mm
21:34 25.2 °C 9.8 °C 1013.0 hPa ESE 2.9 km/h 6.4 km/h 38% 0.0 mm
21:39 25.1 °C 10.1 °C 1013.0 hPa ESE 2.5 km/h 4.8 km/h 38.8% 0.0 mm
21:44 25 °C 9.9 °C 1013.0 hPa Calm   3.9 km/h 38.6% 0.0 mm
21:49 24.8 °C 10.1 °C 1013.2 hPa Calm   5.6 km/h 39.5% 0.0 mm
21:54 24.7 °C 10.7 °C 1013.2 hPa Calm   9.5 km/h 41.4% 0.0 mm
21:59 24.3 °C 10.8 °C 1013.2 hPa NNO 0.8 km/h 9.7 km/h 42.7% 0.0 mm
22:04 23.9 °C 10.9 °C 1013.3 hPa NNO 5 km/h 9.7 km/h 44% 0.0 mm
22:09 23.7 °C 10.7 °C 1013.3 hPa NNO 4.7 km/h 8 km/h 44.1% 0.0 mm
22:14 23.5 °C 10.6 °C 1013.3 hPa North 2.9 km/h 6.4 km/h 44% 0.0 mm
22:19 23.6 °C 10.6 °C 1013.3 hPa North 2.9 km/h 4.8 km/h 44% 0.0 mm
22:24 23.6 °C 10.6 °C 1013.3 hPa NNO 2.9 km/h 5.8 km/h 44% 0.0 mm
22:29 23.6 °C 10.7 °C 1013.3 hPa NO 2.9 km/h 6.4 km/h 44.1% 0.0 mm
22:34 23.6 °C 10.8 °C 1013.3 hPa NO 2.9 km/h 3.9 km/h 44.5% 0.0 mm
22:39 23.5 °C 10.9 °C 1013.3 hPa NO 2.5 km/h 3.7 km/h 45% 0.0 mm
22:44 23.5 °C 10.5 °C 1013.3 hPa Calm   7.4 km/h 44.1% 0.0 mm
22:49 23.4 °C 10.1 °C 1013.4 hPa ENE 0.4 km/h 8 km/h 43% 0.0 mm
22:54 23.3 °C 10.1 °C 1013.4 hPa Este 3.2 km/h 8.4 km/h 43% 0.0 mm
22:59 23.3 °C 10 °C 1013.4 hPa SE 3.5 km/h 8 km/h 43% 0.0 mm
23:04 23.3 °C 10.1 °C 1013.4 hPa SE 5 km/h 9.3 km/h 43.4% 0.0 mm
23:09 23.2 °C 10.3 °C 1013.4 hPa SE 4.8 km/h 9.7 km/h 44% 0.0 mm
23:14 23.1 °C 10.2 °C 1013.4 hPa SE 3.9 km/h 8 km/h 44% 0.0 mm
23:19 23.1 °C 10.4 °C 1013.4 hPa SSE 3.7 km/h 7.4 km/h 44.8% 0.0 mm
23:24 23.1 °C 10.5 °C 1013.4 hPa SSE 2.9 km/h 8 km/h 45% 0.0 mm
23:29 23.2 °C 10.8 °C 1013.4 hPa SSE 2.9 km/h 8 km/h 45.8% 0.0 mm
23:34 23.1 °C 11 °C 1013.6 hPa SSE 3.2 km/h 5.6 km/h 46.6% 0.0 mm
23:39 23.1 °C 11.2 °C 1013.6 hPa SSE 3.1 km/h 4.8 km/h 47.1% 0.0 mm
23:44 22.9 °C 11.3 °C 1013.6 hPa SSE 2.2 km/h 7.4 km/h 48.2% 0.0 mm
23:49 22.7 °C 11.4 °C 1013.6 hPa SSE 2.5 km/h 9.5 km/h 49.1% 0.0 mm
23:54 22.5 °C 11.6 °C 1013.6 hPa SSE 4.7 km/h 9.7 km/h 50.2% 0.0 mm
23:59 22.3 °C 11.7 °C 1013.6 hPa SSE 4.8 km/h 10 km/h 51% 0.0 mm
Murcia-Puente Tocinos, España
Compliments of Weather Underground - 3 mb

La estación de MeteoMurcia.com, publica sus datos en los siguientes proyectos:

Weather Underground PWS IMURCIAP2 Meteoclimatic www.awekas.at

W3Counter
Web Analytics